Urb Valles de Yabucoa, Puerto Rico
Current Conditions -  °F | °C
As of 10:53 AM on Wednesday 22 Oct 2014 (Local Time) from TJNR Reporting Station
Clear Clear  
Wind Chill: 88°   Ceiling: Unl
Heat Index: 95°   Visibility: 10mi
Dew Point: 72°   Wind: 10mph
Humidity: 59%   Direction: 110°ESE
Pressure: 30.01"   Gusts: NA
Location:  18.0547°N, 65.8738°W
Report Text: TJNR 221453Z AUTO 11009KT 10SM CLR 31/22 A3001 RMK AO2 SLP161 T03110222 50000
Loading
Personal Weather Stations






























Interactive Weather Map
Tropical Storm Tracking
New forecast layout! Learn more

10-Day Weather Forecast

Advertisements
Track Severe Weather on mobile